Time;durP1;ratioP1;P1;durP2;ratioP2;P2;SDS_P1;SDS_P2;PMS_P1;PMS_P2;Temp;Humidity;BMP_temperature;BMP_pressure;BME280_temperature;BME280_humidity;BME280_pressure;Samples;Min_cycle;Max_cycle;Signal;HPM_P1;HPM_P2
2022/11/09 00:01:50;;;;;;;8.90;8.30;;;;;;;;;;10188932;28;20049;-69
2022/11/09 00:06:46;;;;;;;9.82;9.02;;;;;;;;;;10184852;28;20528;-69
2022/11/09 00:11:42;;;;;;;10.32;9.32;;;;;;;;;;10204782;28;20688;-68
2022/11/09 00:16:38;;;;;;;9.77;8.98;;;;;;;;;;10178459;28;20054;-69
2022/11/09 00:21:35;;;;;;;9.98;9.18;;;;;;;;;;10180768;28;20060;-69
2022/11/09 00:26:31;;;;;;;11.25;10.18;;;;;;;;;;10191665;28;20050;-68
2022/11/09 00:31:27;;;;;;;10.85;9.85;;;;;;;;;;10199260;28;20053;-68
2022/11/09 00:36:24;;;;;;;9.80;9.00;;;;;;;;;;10191640;28;20053;-67
2022/11/09 00:41:21;;;;;;;10.55;9.68;;;;;;;;;;10186439;28;20049;-68
2022/11/09 00:46:18;;;;;;;10.30;9.50;;;;;;;;;;10189575;28;20508;-68
2022/11/09 00:51:14;;;;;;;9.98;9.18;;;;;;;;;;10191994;28;20060;-68
2022/11/09 00:56:11;;;;;;;10.73;9.93;;;;;;;;;;10175441;28;20046;-67
2022/11/09 01:01:10;;;;;;;10.55;9.75;;;;;;;;;;10192863;28;20047;-68
2022/11/09 01:06:07;;;;;;;11.25;10.35;;;;;;;;;;10187846;28;20053;-69
2022/11/09 01:11:04;;;;;;;11.73;10.73;;;;;;;;;;10201017;28;20402;-68
2022/11/09 01:16:03;;;;;;;11.63;10.73;;;;;;;;;;10194665;28;20570;-69
2022/11/09 01:21:00;;;;;;;11.98;10.82;;;;;;;;;;10203502;28;20050;-69
2022/11/09 01:26:01;;;;;;;11.23;10.30;;;;;;;;;;10206187;28;20662;-69
2022/11/09 01:31:01;;;;;;;11.20;10.40;;;;;;;;;;10205403;28;20045;-69
2022/11/09 01:36:01;;;;;;;11.65;10.75;;;;;;;;;;10193724;28;20072;-69
2022/11/09 01:40:57;;;;;;;12.25;11.35;;;;;;;;;;10207921;28;20420;-68
2022/11/09 01:46:05;;;;;;;12.20;11.38;;;;;;;;;;10197396;28;20054;-69
2022/11/09 01:51:08;;;;;;;12.30;11.32;;;;;;;;;;10203299;28;20135;-69
2022/11/09 01:56:06;;;;;;;13.25;12.00;;;;;;;;;;10191317;28;20045;-68
2022/11/09 02:01:03;;;;;;;13.70;12.73;;;;;;;;;;10203569;28;20052;-69
2022/11/09 02:06:02;;;;;;;13.20;12.20;;;;;;;;;;10197888;28;20049;-68
2022/11/09 02:11:02;;;;;;;14.73;13.45;;;;;;;;;;10178727;28;20406;-68
2022/11/09 02:15:58;;;;;;;15.63;14.52;;;;;;;;;;10197328;28;20046;-67
2022/11/09 02:20:56;;;;;;;15.63;14.27;;;;;;;;;;10201343;28;20532;-68
2022/11/09 02:26:00;;;;;;;15.15;14.15;;;;;;;;;;10183332;28;20041;-68
2022/11/09 02:30:57;;;;;;;16.65;15.25;;;;;;;;;;10180836;28;20061;-68
2022/11/09 02:35:54;;;;;;;15.43;14.38;;;;;;;;;;10185356;28;20045;-69
2022/11/09 02:40:50;;;;;;;15.32;14.13;;;;;;;;;;10187347;28;20049;-68
2022/11/09 02:45:47;;;;;;;14.73;13.68;;;;;;;;;;10197584;28;20050;-68
2022/11/09 02:50:43;;;;;;;14.88;13.85;;;;;;;;;;10194899;28;20047;-68
2022/11/09 02:55:39;;;;;;;14.63;13.63;;;;;;;;;;10191355;28;20042;-69
2022/11/09 03:00:35;;;;;;;14.77;13.68;;;;;;;;;;10174431;28;20045;-69
2022/11/09 03:05:31;;;;;;;15.75;14.75;;;;;;;;;;10196074;28;20052;-68
2022/11/09 03:10:28;;;;;;;16.40;15.30;;;;;;;;;;10186455;28;20078;-68
2022/11/09 03:15:24;;;;;;;16.38;15.18;;;;;;;;;;10173707;28;20046;-69
2022/11/09 03:20:20;;;;;;;16.77;15.50;;;;;;;;;;10201222;28;20042;-70
2022/11/09 03:25:17;;;;;;;17.35;16.15;;;;;;;;;;10192126;28;20128;-69
2022/11/09 03:30:13;;;;;;;17.17;16.05;;;;;;;;;;10193201;28;21052;-67
2022/11/09 03:35:09;;;;;;;17.80;16.60;;;;;;;;;;10196855;28;20068;-67
2022/11/09 03:40:06;;;;;;;19.40;18.10;;;;;;;;;;10188290;28;20053;-69
2022/11/09 03:45:02;;;;;;;18.23;17.10;;;;;;;;;;10202485;28;20046;-69
2022/11/09 03:49:58;;;;;;;18.20;16.95;;;;;;;;;;10191975;28;20060;-67
2022/11/09 03:54:55;;;;;;;17.58;16.35;;;;;;;;;;10204840;28;20056;-67
2022/11/09 03:59:51;;;;;;;17.88;16.67;;;;;;;;;;10198347;28;20046;-68
2022/11/09 04:04:47;;;;;;;19.15;17.98;;;;;;;;;;10173210;28;20405;-67
2022/11/09 04:09:43;;;;;;;17.33;16.23;;;;;;;;;;10194911;28;20060;-68
2022/11/09 04:14:40;;;;;;;19.45;18.05;;;;;;;;;;10170788;28;20426;-69
2022/11/09 04:19:36;;;;;;;17.92;16.73;;;;;;;;;;10161937;28;20663;-69
2022/11/09 04:24:32;;;;;;;17.80;16.67;;;;;;;;;;10176437;28;20041;-68
2022/11/09 04:29:28;;;;;;;17.88;16.55;;;;;;;;;;10169117;28;20057;-69
2022/11/09 04:34:25;;;;;;;18.88;17.70;;;;;;;;;;10166374;28;20073;-69
2022/11/09 04:39:21;;;;;;;19.80;18.50;;;;;;;;;;10169399;28;20041;-69
2022/11/09 04:44:17;;;;;;;19.90;18.70;;;;;;;;;;10175664;28;20540;-68
2022/11/09 04:49:14;;;;;;;21.05;19.40;;;;;;;;;;10185873;28;20042;-68
2022/11/09 04:54:10;;;;;;;22.25;20.95;;;;;;;;;;10191364;28;20339;-68
2022/11/09 04:59:06;;;;;;;22.23;20.73;;;;;;;;;;10154265;28;20421;-68
2022/11/09 05:04:03;;;;;;;22.25;20.90;;;;;;;;;;10172637;28;20096;-68
2022/11/09 05:09:00;;;;;;;23.10;21.42;;;;;;;;;;10155489;28;20112;-68
2022/11/09 05:13:57;;;;;;;23.80;22.30;;;;;;;;;;10166685;28;20061;-68
2022/11/09 05:18:53;;;;;;;26.35;24.85;;;;;;;;;;10145437;28;20046;-70
2022/11/09 05:23:59;;;;;;;27.73;26.10;;;;;;;;;;10177013;28;20050;-69
2022/11/09 05:28:57;;;;;;;27.65;25.75;;;;;;;;;;10188834;28;20449;-70
2022/11/09 05:33:54;;;;;;;29.80;27.70;;;;;;;;;;10182677;28;20065;-69
2022/11/09 05:38:50;;;;;;;25.50;23.95;;;;;;;;;;10174569;28;20624;-69
2022/11/09 05:43:46;;;;;;;26.55;24.85;;;;;;;;;;10180923;28;20693;-69
2022/11/09 05:48:43;;;;;;;25.20;23.60;;;;;;;;;;10173799;28;20043;-69
2022/11/09 05:53:39;;;;;;;24.45;22.75;;;;;;;;;;10166124;28;20068;-70
2022/11/09 05:58:41;;;;;;;24.33;22.80;;;;;;;;;;10179264;28;20069;-69
2022/11/09 06:03:39;;;;;;;26.13;23.98;;;;;;;;;;10197194;28;20046;-70
2022/11/09 06:08:35;;;;;;;26.85;24.80;;;;;;;;;;10180877;28;20047;-70
2022/11/09 06:13:32;;;;;;;27.48;25.90;;;;;;;;;;10176129;28;20052;-70
2022/11/09 06:18:29;;;;;;;26.60;24.92;;;;;;;;;;10175164;28;20420;-70
2022/11/09 06:23:26;;;;;;;29.63;27.05;;;;;;;;;;10172344;28;20531;-70
2022/11/09 06:28:22;;;;;;;28.27;26.58;;;;;;;;;;10198763;28;20042;-70
2022/11/09 06:33:18;;;;;;;29.98;28.08;;;;;;;;;;10188239;28;20062;-69
2022/11/09 06:38:15;;;;;;;28.75;26.65;;;;;;;;;;10186824;28;20096;-69
2022/11/09 06:43:11;;;;;;;27.25;25.42;;;;;;;;;;10189197;28;20418;-69
2022/11/09 06:48:08;;;;;;;29.05;27.25;;;;;;;;;;10183557;28;20100;-70
2022/11/09 06:53:06;;;;;;;26.98;25.27;;;;;;;;;;10187950;28;20056;-69
2022/11/09 06:58:06;;;;;;;26.25;24.60;;;;;;;;;;10168972;28;20417;-69
2022/11/09 07:03:02;;;;;;;26.33;24.42;;;;;;;;;;10165298;28;20056;-69
2022/11/09 07:07:59;;;;;;;24.70;23.05;;;;;;;;;;10174686;28;20049;-69
2022/11/09 07:12:58;;;;;;;25.65;24.00;;;;;;;;;;10168703;28;20040;-69
2022/11/09 07:18:01;;;;;;;26.38;24.58;;;;;;;;;;10165764;28;20060;-69
2022/11/09 07:22:57;;;;;;;25.42;23.73;;;;;;;;;;10170345;28;20041;-69
2022/11/09 07:27:53;;;;;;;27.98;26.20;;;;;;;;;;10178651;28;20045;-69
2022/11/09 07:32:50;;;;;;;28.05;26.05;;;;;;;;;;10184059;28;20046;-69
2022/11/09 07:38:06;;;;;;;28.15;26.25;;;;;;;;;;10180233;28;20046;-70
2022/11/09 07:43:03;;;;;;;28.15;26.30;;;;;;;;;;10179187;28;20760;-69
2022/11/09 07:48:01;;;;;;;26.92;25.23;;;;;;;;;;10178208;28;20045;-69
2022/11/09 07:52:58;;;;;;;27.25;25.45;;;;;;;;;;10178775;28;20069;-69
2022/11/09 07:57:55;;;;;;;26.52;24.88;;;;;;;;;;10189192;28;20053;-69
2022/11/09 08:02:51;;;;;;;26.25;24.35;;;;;;;;;;10186302;28;20049;-69
2022/11/09 08:07:52;;;;;;;24.33;22.67;;;;;;;;;;10176251;28;20069;-69
2022/11/09 08:12:53;;;;;;;23.90;22.35;;;;;;;;;;10178810;28;20128;-69
2022/11/09 08:17:49;;;;;;;24.58;22.77;;;;;;;;;;10179784;28;20057;-69
2022/11/09 08:22:46;;;;;;;23.83;22.02;;;;;;;;;;10186388;28;20056;-69
2022/11/09 08:27:42;;;;;;;24.25;22.48;;;;;;;;;;10174731;28;20413;-69
2022/11/09 08:32:39;;;;;;;22.05;20.13;;;;;;;;;;10173034;28;20060;-69
2022/11/09 08:37:36;;;;;;;20.30;18.90;;;;;;;;;;10177835;28;20053;-69
2022/11/09 08:42:32;;;;;;;19.67;18.33;;;;;;;;;;10180384;28;20134;-69
2022/11/09 08:47:29;;;;;;;19.67;18.08;;;;;;;;;;10174035;28;20073;-69
2022/11/09 08:52:25;;;;;;;20.67;19.17;;;;;;;;;;10180781;28;20587;-69
2022/11/09 08:57:22;;;;;;;21.20;19.70;;;;;;;;;;10182915;28;20551;-69
2022/11/09 09:02:19;;;;;;;17.58;16.13;;;;;;;;;;10187780;28;20054;-69
2022/11/09 09:07:16;;;;;;;17.38;15.98;;;;;;;;;;10185273;28;20092;-69
2022/11/09 09:12:12;;;;;;;16.02;14.82;;;;;;;;;;10193579;28;20052;-69
2022/11/09 09:17:09;;;;;;;16.88;15.48;;;;;;;;;;10177969;28;20054;-69
2022/11/09 09:22:06;;;;;;;16.95;15.30;;;;;;;;;;10185802;28;20046;-69
2022/11/09 09:27:02;;;;;;;16.25;14.57;;;;;;;;;;10169993;28;20065;-69
2022/11/09 09:31:58;;;;;;;15.25;14.10;;;;;;;;;;10179193;28;20057;-69
2022/11/09 09:36:55;;;;;;;14.80;13.32;;;;;;;;;;10176845;28;20433;-69
2022/11/09 09:41:53;;;;;;;15.77;12.90;;;;;;;;;;10200985;28;20049;-69
2022/11/09 09:46:57;;;;;;;13.13;12.05;;;;;;;;;;10187313;28;20050;-69
2022/11/09 09:51:56;;;;;;;12.98;11.68;;;;;;;;;;10181505;28;20077;-69
2022/11/09 09:56:56;;;;;;;12.55;11.57;;;;;;;;;;10180327;28;20056;-69
2022/11/09 10:01:56;;;;;;;13.02;11.73;;;;;;;;;;10178471;28;20046;-69
2022/11/09 10:06:58;;;;;;;12.57;11.50;;;;;;;;;;10183260;28;20470;-69
2022/11/09 10:11:54;;;;;;;15.70;12.23;;;;;;;;;;10186667;28;20047;-69
2022/11/09 10:17:12;;;;;;;12.82;11.73;;;;;;;;;;10188425;28;20477;-69
2022/11/09 10:22:08;;;;;;;12.93;11.10;;;;;;;;;;10184140;28;20046;-69
2022/11/09 10:27:16;;;;;;;12.27;11.23;;;;;;;;;;10182713;28;20046;-69
2022/11/09 10:32:14;;;;;;;12.25;11.18;;;;;;;;;;10178875;28;20057;-69
2022/11/09 10:37:19;;;;;;;12.25;11.20;;;;;;;;;;10180537;28;20052;-69
2022/11/09 10:42:16;;;;;;;13.30;11.02;;;;;;;;;;10187837;28;20042;-69
2022/11/09 10:47:13;;;;;;;13.90;11.27;;;;;;;;;;10176668;28;20049;-69
2022/11/09 10:52:30;;;;;;;11.80;10.60;;;;;;;;;;10193991;28;20048;-69
2022/11/09 10:57:27;;;;;;;11.18;10.13;;;;;;;;;;10178076;28;20048;-69
2022/11/09 11:02:23;;;;;;;10.82;9.80;;;;;;;;;;10188093;28;20513;-69
2022/11/09 11:07:20;;;;;;;10.73;9.73;;;;;;;;;;10173233;28;20056;-69
2022/11/09 11:12:19;;;;;;;10.88;9.95;;;;;;;;;;10177470;28;20046;-69
2022/11/09 11:17:21;;;;;;;12.02;9.95;;;;;;;;;;10176242;28;20129;-69
2022/11/09 11:22:22;;;;;;;12.23;8.30;;;;;;;;;;10173697;28;20038;-69
2022/11/09 11:27:22;;;;;;;12.52;10.27;;;;;;;;;;10171700;28;20042;-69
2022/11/09 11:32:19;;;;;;;11.80;9.43;;;;;;;;;;10169968;28;20085;-69
2022/11/09 11:37:15;;;;;;;11.77;10.57;;;;;;;;;;10181516;28;20061;-69
2022/11/09 11:42:14;;;;;;;9.95;9.05;;;;;;;;;;10185412;28;20038;-69
2022/11/09 11:47:29;;;;;;;10.00;9.10;;;;;;;;;;10189018;28;20042;-69
2022/11/09 11:52:43;;;;;;;10.30;9.00;;;;;;;;;;10188729;28;20515;-69
2022/11/09 11:57:50;;;;;;;13.05;8.48;;;;;;;;;;10196622;28;20064;-69
2022/11/09 12:03:04;;;;;;;9.88;8.40;;;;;;;;;;10182108;28;20046;-69
2022/11/09 12:08:19;;;;;;;14.15;8.27;;;;;;;;;;10173807;28;20056;-69
2022/11/09 12:13:31;;;;;;;11.43;8.60;;;;;;;;;;10181522;28;20085;-69
2022/11/09 12:18:46;;;;;;;10.80;7.95;;;;;;;;;;10165898;28;20421;-69
2022/11/09 12:23:54;;;;;;;9.65;7.53;;;;;;;;;;10184543;28;20501;-70
2022/11/09 12:29:02;;;;;;;10.52;7.97;;;;;;;;;;10184368;28;20056;-69
2022/11/09 12:34:05;;;;;;;15.43;8.82;;;;;;;;;;10183163;28;20046;-69
2022/11/09 12:39:04;;;;;;;9.75;8.45;;;;;;;;;;10168452;28;20057;-69
2022/11/09 12:44:08;;;;;;;9.02;8.13;;;;;;;;;;10176466;28;20046;-69
2022/11/09 12:49:30;;;;;;;14.13;8.93;;;;;;;;;;10165137;28;20583;-69
2022/11/09 12:54:27;;;;;;;9.38;8.25;;;;;;;;;;10172878;28;20080;-69
2022/11/09 12:59:26;;;;;;;11.75;8.35;;;;;;;;;;10186481;28;20520;-69
2022/11/09 13:04:23;;;;;;;10.73;8.15;;;;;;;;;;10198933;28;20046;-69
2022/11/09 13:09:23;;;;;;;11.60;7.90;;;;;;;;;;10182996;28;20077;-69
2022/11/09 13:14:22;;;;;;;9.75;8.00;;;;;;;;;;10181401;28;20077;-69
2022/11/09 13:19:33;;;;;;;13.00;9.23;;;;;;;;;;10183391;28;20049;-69
2022/11/09 13:24:29;;;;;;;9.05;8.20;;;;;;;;;;10177858;28;20042;-69
2022/11/09 13:29:27;;;;;;;8.40;7.60;;;;;;;;;;10187615;28;20049;-69
2022/11/09 13:34:39;;;;;;;8.25;7.18;;;;;;;;;;10174959;28;20049;-69
2022/11/09 13:39:36;;;;;;;9.68;7.85;;;;;;;;;;10182817;28;20038;-69
2022/11/09 13:44:33;;;;;;;9.32;8.43;;;;;;;;;;10178528;28;20062;-69
2022/11/09 13:49:38;;;;;;;11.80;8.50;;;;;;;;;;10183286;28;20133;-69
2022/11/09 13:54:35;;;;;;;13.00;8.63;;;;;;;;;;10188224;28;20406;-69
2022/11/09 13:59:41;;;;;;;14.18;8.77;;;;;;;;;;10189373;28;20054;-69
2022/11/09 14:04:40;;;;;;;8.80;7.72;;;;;;;;;;10186391;28;20162;-69
2022/11/09 14:09:44;;;;;;;8.95;7.45;;;;;;;;;;10181784;28;20045;-69
2022/11/09 14:14:47;;;;;;;8.88;8.02;;;;;;;;;;10173306;28;20517;-69
2022/11/09 14:20:03;;;;;;;9.88;7.22;;;;;;;;;;10185549;28;20049;-69
2022/11/09 14:25:17;;;;;;;12.60;9.48;;;;;;;;;;10177926;28;20175;-69
2022/11/09 14:30:19;;;;;;;10.15;7.65;;;;;;;;;;10184018;28;20061;-69
2022/11/09 14:35:24;;;;;;;10.25;8.05;;;;;;;;;;10186430;28;20064;-69
2022/11/09 14:40:25;;;;;;;9.95;8.05;;;;;;;;;;10183538;28;20054;-69
2022/11/09 14:45:22;;;;;;;11.65;7.93;;;;;;;;;;10185482;28;20500;-70
2022/11/09 14:50:25;;;;;;;9.90;8.18;;;;;;;;;;10177002;28;20683;-69
2022/11/09 14:55:23;;;;;;;11.25;8.90;;;;;;;;;;10188093;28;20042;-69
2022/11/09 15:00:22;;;;;;;12.25;8.65;;;;;;;;;;10175524;28;20053;-69
2022/11/09 15:05:30;;;;;;;10.30;9.40;;;;;;;;;;10178133;28;20045;-69
2022/11/09 15:10:29;;;;;;;9.13;8.23;;;;;;;;;;10177073;28;20510;-69
2022/11/09 15:15:26;;;;;;;10.77;9.15;;;;;;;;;;10176765;28;20513;-69
2022/11/09 15:20:25;;;;;;;10.70;8.95;;;;;;;;;;10190007;28;20548;-69
2022/11/09 15:25:27;;;;;;;14.50;8.63;;;;;;;;;;10187679;28;20137;-70
2022/11/09 15:30:23;;;;;;;;;;;;;;;;;;10167475;28;20594;-69
2022/11/09 15:35:20;;;;;;;10.68;9.00;;;;;;;;;;10177562;28;19929;-69
2022/11/09 15:40:18;;;;;;;11.30;9.07;;;;;;;;;;10178280;28;20485;-69
2022/11/09 15:45:15;;;;;;;10.15;9.02;;;;;;;;;;10181403;28;20045;-70
2022/11/09 15:50:16;;;;;;;11.38;10.05;;;;;;;;;;10182880;28;20062;-69
2022/11/09 15:55:13;;;;;;;10.50;9.32;;;;;;;;;;10185424;28;20042;-69
2022/11/09 16:00:13;;;;;;;10.50;9.43;;;;;;;;;;10175678;28;20046;-69
2022/11/09 16:05:17;;;;;;;11.35;10.35;;;;;;;;;;10178042;28;20757;-69
2022/11/09 16:10:13;;;;;;;11.45;9.55;;;;;;;;;;10181201;28;20049;-69
2022/11/09 16:15:09;;;;;;;10.38;9.43;;;;;;;;;;10175888;28;20046;-69
2022/11/09 16:20:06;;;;;;;10.80;9.80;;;;;;;;;;10173568;28;20394;-68
2022/11/09 16:25:02;;;;;;;10.55;9.30;;;;;;;;;;10166410;28;20470;-68
2022/11/09 16:29:59;;;;;;;14.23;9.60;;;;;;;;;;10185518;28;20049;-68
2022/11/09 16:34:56;;;;;;;10.82;9.18;;;;;;;;;;10180370;28;20079;-68
2022/11/09 16:40:14;;;;;;;10.07;9.05;;;;;;;;;;10190825;28;20062;-68
2022/11/09 16:45:13;;;;;;;12.73;10.65;;;;;;;;;;10177080;28;20043;-68
2022/11/09 16:50:10;;;;;;;14.00;12.90;;;;;;;;;;10177026;28;20052;-68
2022/11/09 16:55:08;;;;;;;19.00;17.48;;;;;;;;;;10175249;28;20054;-67
2022/11/09 17:00:05;;;;;;;21.90;20.48;;;;;;;;;;10170456;28;20543;-68
2022/11/09 17:05:01;;;;;;;27.02;25.13;;;;;;;;;;10171645;28;20049;-67
2022/11/09 17:09:57;;;;;;;32.17;29.67;;;;;;;;;;10188451;28;20038;-67
2022/11/09 17:14:54;;;;;;;39.13;36.55;;;;;;;;;;10169837;28;20038;-68
2022/11/09 17:19:50;;;;;;;39.60;37.03;;;;;;;;;;10187015;28;20056;-68
2022/11/09 17:24:46;;;;;;;32.25;29.85;;;;;;;;;;10198362;28;20046;-67
2022/11/09 17:29:43;;;;;;;32.80;30.65;;;;;;;;;;10182695;28;20077;-67
2022/11/09 17:34:39;;;;;;;25.33;23.52;;;;;;;;;;10188139;28;20117;-68
2022/11/09 17:39:36;;;;;;;23.25;21.42;;;;;;;;;;10176952;28;20062;-68
2022/11/09 17:44:35;;;;;;;20.05;18.75;;;;;;;;;;10174590;28;20502;-68
2022/11/09 17:49:31;;;;;;;16.73;15.45;;;;;;;;;;10183870;28;20043;-68
2022/11/09 17:54:28;;;;;;;17.25;15.68;;;;;;;;;;10182834;28;20038;-69
2022/11/09 17:59:32;;;;;;;17.52;16.17;;;;;;;;;;10168910;28;20525;-68
2022/11/09 18:04:28;;;;;;;15.70;14.60;;;;;;;;;;10143097;28;20050;-69
2022/11/09 18:09:24;;;;;;;20.27;17.88;;;;;;;;;;10163873;28;20042;-69
2022/11/09 18:14:38;;;;;;;17.00;15.57;;;;;;;;;;10177509;28;20049;-69
2022/11/09 18:19:34;;;;;;;15.30;14.00;;;;;;;;;;10174822;28;20038;-69
2022/11/09 18:24:31;;;;;;;14.68;13.20;;;;;;;;;;10174270;28;20039;-69
2022/11/09 18:29:28;;;;;;;14.25;13.15;;;;;;;;;;10169075;28;20069;-68
2022/11/09 18:34:24;;;;;;;16.23;15.13;;;;;;;;;;10161000;28;20067;-68
2022/11/09 18:39:20;;;;;;;22.42;20.73;;;;;;;;;;10166077;28;20047;-68
2022/11/09 18:44:16;;;;;;;24.45;22.40;;;;;;;;;;10163022;28;20050;-68
2022/11/09 18:49:14;;;;;;;26.30;24.05;;;;;;;;;;10171167;28;20045;-68
2022/11/09 18:54:10;;;;;;;28.80;26.88;;;;;;;;;;10180081;28;20483;-68
2022/11/09 18:59:09;;;;;;;27.17;25.48;;;;;;;;;;10171098;28;20054;-68
2022/11/09 19:04:05;;;;;;;24.85;22.83;;;;;;;;;;10169465;28;20043;-68
2022/11/09 19:14:16;;;;;;;36.15;33.50;;;;;;;;;;10173937;28;20081;-68
2022/11/09 19:19:13;;;;;;;37.40;34.90;;;;;;;;;;10167081;28;20056;-68
2022/11/09 19:24:11;;;;;;;35.22;32.90;;;;;;;;;;10193178;28;20046;-68
2022/11/09 19:29:08;;;;;;;31.52;29.45;;;;;;;;;;10194337;28;20056;-68
2022/11/09 19:34:04;;;;;;;25.35;23.30;;;;;;;;;;10185048;28;20068;-69
2022/11/09 19:39:01;;;;;;;23.00;21.33;;;;;;;;;;10194364;28;20064;-68
2022/11/09 19:43:57;;;;;;;23.33;21.48;;;;;;;;;;10175966;28;20472;-68
2022/11/09 19:48:53;;;;;;;20.83;19.30;;;;;;;;;;10190235;28;20159;-68
2022/11/09 19:53:54;;;;;;;20.38;18.77;;;;;;;;;;10190239;28;20045;-68
2022/11/09 19:58:52;;;;;;;20.10;18.67;;;;;;;;;;10180043;28;20037;-69
2022/11/09 20:03:52;;;;;;;21.33;19.73;;;;;;;;;;10184351;28;20045;-68
2022/11/09 20:08:48;;;;;;;22.88;21.00;;;;;;;;;;10180989;28;21886;-68
2022/11/09 20:13:44;;;;;;;23.48;21.63;;;;;;;;;;10170266;28;20046;-68
2022/11/09 20:18:41;;;;;;;23.02;21.17;;;;;;;;;;10174322;28;20050;-68
2022/11/09 20:23:38;;;;;;;21.60;20.00;;;;;;;;;;10188621;28;20413;-68
2022/11/09 20:28:34;;;;;;;24.58;22.85;;;;;;;;;;10199053;28;20131;-68
2022/11/09 20:33:30;;;;;;;22.42;20.92;;;;;;;;;;10179060;28;20046;-67
2022/11/09 20:38:27;;;;;;;24.20;22.52;;;;;;;;;;10191956;28;20078;-68
2022/11/09 20:43:26;;;;;;;22.30;20.77;;;;;;;;;;10193269;28;20486;-68
2022/11/09 20:48:23;;;;;;;25.98;24.02;;;;;;;;;;10183888;28;20045;-68
2022/11/09 20:53:39;;;;;;;24.80;23.02;;;;;;;;;;10179989;28;20046;-68
2022/11/09 20:58:35;;;;;;;27.70;25.73;;;;;;;;;;10148923;28;20076;-67
2022/11/09 21:03:32;;;;;;;27.98;25.83;;;;;;;;;;10150828;28;20042;-67
2022/11/09 21:08:29;;;;;;;31.65;29.63;;;;;;;;;;10179776;28;20430;-69
2022/11/09 21:13:25;;;;;;;34.28;31.92;;;;;;;;;;10186546;28;20054;-68
2022/11/09 21:18:21;;;;;;;34.35;32.25;;;;;;;;;;10187124;28;20049;-69
2022/11/09 21:33:30;;;;;;;37.08;34.78;;;;;;;;;;10172512;28;20041;-68
2022/11/09 21:38:26;;;;;;;35.72;33.42;;;;;;;;;;10172922;28;20053;-68
2022/11/09 21:43:22;;;;;;;36.63;33.90;;;;;;;;;;10180386;28;20509;-68
2022/11/09 21:48:19;;;;;;;42.35;39.55;;;;;;;;;;10185455;28;20465;-68
2022/11/09 21:53:15;;;;;;;41.72;39.22;;;;;;;;;;10188092;28;20048;-67
2022/11/09 21:58:12;;;;;;;43.17;40.42;;;;;;;;;;10191942;28;20046;-67
2022/11/09 22:03:08;;;;;;;42.97;40.38;;;;;;;;;;10191198;28;20421;-67
2022/11/09 22:08:04;;;;;;;43.95;41.30;;;;;;;;;;10192440;28;20042;-67
2022/11/09 22:23:31;;;;;;;47.22;44.42;;;;;;;;;;10191476;28;20048;-68
2022/11/09 22:28:27;;;;;;;48.95;45.92;;;;;;;;;;10199122;28;20486;-67
2022/11/09 22:33:23;;;;;;;48.38;45.47;;;;;;;;;;10197170;28;20054;-67
2022/11/09 22:38:23;;;;;;;44.15;41.40;;;;;;;;;;10198478;28;20056;-67
2022/11/09 22:43:19;;;;;;;54.28;51.10;;;;;;;;;;10191090;28;20041;-68
2022/11/09 22:48:16;;;;;;;51.92;48.50;;;;;;;;;;10196776;28;20072;-67
2022/11/09 22:53:12;;;;;;;51.85;48.53;;;;;;;;;;10202252;28;20041;-68
2022/11/09 22:58:09;;;;;;;59.67;56.42;;;;;;;;;;10175811;28;20054;-68
2022/11/09 23:03:06;;;;;;;58.15;54.78;;;;;;;;;;10193555;28;20042;-66
2022/11/09 23:08:02;;;;;;;58.08;54.58;;;;;;;;;;10191679;28;20033;-65
2022/11/09 23:12:58;;;;;;;61.28;57.20;;;;;;;;;;10196270;28;20084;-66
2022/11/09 23:23:10;;;;;;;58.05;54.70;;;;;;;;;;10180455;28;20410;-68
2022/11/09 23:28:07;;;;;;;63.72;59.83;;;;;;;;;;10183073;28;20042;-69
2022/11/09 23:33:03;;;;;;;67.40;63.13;;;;;;;;;;10186282;28;20068;-68
2022/11/09 23:38:00;;;;;;;68.25;64.47;;;;;;;;;;10198558;28;20052;-68
2022/11/09 23:43:00;;;;;;;71.53;67.40;;;;;;;;;;10186957;28;20621;-67
2022/11/09 23:47:56;;;;;;;75.45;70.80;;;;;;;;;;10170385;28;20045;-68
2022/11/09 23:52:57;;;;;;;66.93;63.33;;;;;;;;;;10188371;28;20045;-68
2022/11/09 23:57:53;;;;;;;80.07;75.60;;;;;;;;;;10186010;28;20045;-68
